sensor_id;sensor_type;location;lat;lon;timestamp;temperature;humidity
4695;DHT22;2361;49.540;8.390;2022-11-20T00:01:28;4.90;99.90
4695;DHT22;2361;49.540;8.390;2022-11-20T00:03:57;4.90;99.90
4695;DHT22;2361;49.540;8.390;2022-11-20T00:06:26;4.90;99.90
4695;DHT22;2361;49.540;8.390;2022-11-20T00:08:56;4.90;99.90
4695;DHT22;2361;49.540;8.390;2022-11-20T00:11:26;5.00;99.90
4695;DHT22;2361;49.540;8.390;2022-11-20T00:13:57;5.00;99.90
4695;DHT22;2361;49.540;8.390;2022-11-20T00:16:27;5.00;99.90
4695;DHT22;2361;49.540;8.390;2022-11-20T00:18:55;5.00;99.90
4695;DHT22;2361;49.540;8.390;2022-11-20T00:21:27;5.00;99.90
4695;DHT22;2361;49.540;8.390;2022-11-20T00:23:56;5.00;99.90
4695;DHT22;2361;49.540;8.390;2022-11-20T00:26:25;5.00;99.90
4695;DHT22;2361;49.540;8.390;2022-11-20T00:28:58;5.00;99.90
4695;DHT22;2361;49.540;8.390;2022-11-20T00:31:27;4.90;99.90
4695;DHT22;2361;49.540;8.390;2022-11-20T00:33:55;4.90;99.90
4695;DHT22;2361;49.540;8.390;2022-11-20T00:36:24;4.90;99.90
4695;DHT22;2361;49.540;8.390;2022-11-20T00:38:53;4.90;99.90
4695;DHT22;2361;49.540;8.390;2022-11-20T00:41:22;4.90;99.90
4695;DHT22;2361;49.540;8.390;2022-11-20T00:43:52;4.90;99.90
4695;DHT22;2361;49.540;8.390;2022-11-20T00:46:22;4.90;99.90
4695;DHT22;2361;49.540;8.390;2022-11-20T00:48:50;4.90;99.90
4695;DHT22;2361;49.540;8.390;2022-11-20T00:51:20;4.90;99.90
4695;DHT22;2361;49.540;8.390;2022-11-20T00:53:48;4.90;99.90
4695;DHT22;2361;49.540;8.390;2022-11-20T00:56:17;4.90;99.90
4695;DHT22;2361;49.540;8.390;2022-11-20T00:58:46;4.90;99.90
4695;DHT22;2361;49.540;8.390;2022-11-20T01:01:24;5.00;99.90
4695;DHT22;2361;49.540;8.390;2022-11-20T01:03:54;5.00;99.90
4695;DHT22;2361;49.540;8.390;2022-11-20T01:06:24;5.00;99.90
4695;DHT22;2361;49.540;8.390;2022-11-20T01:08:54;5.00;99.90
4695;DHT22;2361;49.540;8.390;2022-11-20T01:11:27;5.00;99.90
4695;DHT22;2361;49.540;8.390;2022-11-20T01:13:57;5.00;99.90
4695;DHT22;2361;49.540;8.390;2022-11-20T01:16:34;5.00;99.90
4695;DHT22;2361;49.540;8.390;2022-11-20T01:19:05;5.00;99.90
4695;DHT22;2361;49.540;8.390;2022-11-20T01:21:39;5.00;99.90
4695;DHT22;2361;49.540;8.390;2022-11-20T01:24:10;5.00;99.90
4695;DHT22;2361;49.540;8.390;2022-11-20T01:26:41;5.00;99.90
4695;DHT22;2361;49.540;8.390;2022-11-20T01:29:13;5.00;99.90
4695;DHT22;2361;49.540;8.390;2022-11-20T01:31:42;5.00;99.90
4695;DHT22;2361;49.540;8.390;2022-11-20T01:34:12;5.00;99.90
4695;DHT22;2361;49.540;8.390;2022-11-20T01:36:41;5.00;99.90
4695;DHT22;2361;49.540;8.390;2022-11-20T01:39:15;5.00;99.90
4695;DHT22;2361;49.540;8.390;2022-11-20T01:41:44;5.00;99.90
4695;DHT22;2361;49.540;8.390;2022-11-20T01:44:59;4.90;99.90
4695;DHT22;2361;49.540;8.390;2022-11-20T01:47:45;4.90;99.90
4695;DHT22;2361;49.540;8.390;2022-11-20T01:50:17;5.00;99.90
4695;DHT22;2361;49.540;8.390;2022-11-20T01:52:56;5.00;99.90
4695;DHT22;2361;49.540;8.390;2022-11-20T01:55:28;5.00;99.90
4695;DHT22;2361;49.540;8.390;2022-11-20T01:57:58;5.00;99.90
4695;DHT22;2361;49.540;8.390;2022-11-20T02:00:26;5.00;99.90
4695;DHT22;2361;49.540;8.390;2022-11-20T02:02:56;5.00;99.90
4695;DHT22;2361;49.540;8.390;2022-11-20T02:05:38;5.00;99.90
4695;DHT22;2361;49.540;8.390;2022-11-20T02:08:12;5.00;99.90
4695;DHT22;2361;49.540;8.390;2022-11-20T02:10:39;5.00;99.90
4695;DHT22;2361;49.540;8.390;2022-11-20T02:13:06;5.00;99.90
4695;DHT22;2361;49.540;8.390;2022-11-20T02:15:53;5.10;99.90
4695;DHT22;2361;49.540;8.390;2022-11-20T02:18:21;5.10;99.90
4695;DHT22;2361;49.540;8.390;2022-11-20T02:20:53;5.10;99.90
4695;DHT22;2361;49.540;8.390;2022-11-20T02:23:39;5.10;99.90
4695;DHT22;2361;49.540;8.390;2022-11-20T02:26:26;5.20;99.90
4695;DHT22;2361;49.540;8.390;2022-11-20T02:28:54;5.20;99.90
4695;DHT22;2361;49.540;8.390;2022-11-20T02:31:22;5.20;99.90
4695;DHT22;2361;49.540;8.390;2022-11-20T02:33:57;5.10;99.90
4695;DHT22;2361;49.540;8.390;2022-11-20T02:36:26;5.10;99.90
4695;DHT22;2361;49.540;8.390;2022-11-20T02:38:54;5.10;99.90
4695;DHT22;2361;49.540;8.390;2022-11-20T02:41:21;5.10;99.90
4695;DHT22;2361;49.540;8.390;2022-11-20T02:43:48;5.10;99.90
4695;DHT22;2361;49.540;8.390;2022-11-20T02:46:15;5.10;99.90
4695;DHT22;2361;49.540;8.390;2022-11-20T02:48:42;5.10;99.90
4695;DHT22;2361;49.540;8.390;2022-11-20T02:51:09;5.00;99.90
4695;DHT22;2361;49.540;8.390;2022-11-20T02:53:36;5.00;99.90
4695;DHT22;2361;49.540;8.390;2022-11-20T02:56:03;4.90;99.90
4695;DHT22;2361;49.540;8.390;2022-11-20T02:58:30;4.90;99.90
4695;DHT22;2361;49.540;8.390;2022-11-20T03:00:57;4.90;99.90
4695;DHT22;2361;49.540;8.390;2022-11-20T03:03:24;4.80;99.90
4695;DHT22;2361;49.540;8.390;2022-11-20T03:05:51;4.80;99.90
4695;DHT22;2361;49.540;8.390;2022-11-20T03:08:18;4.80;99.90
4695;DHT22;2361;49.540;8.390;2022-11-20T03:10:45;4.90;99.90
4695;DHT22;2361;49.540;8.390;2022-11-20T03:13:12;4.80;99.90
4695;DHT22;2361;49.540;8.390;2022-11-20T03:15:39;4.90;99.90
4695;DHT22;2361;49.540;8.390;2022-11-20T03:18:06;4.90;99.90
4695;DHT22;2361;49.540;8.390;2022-11-20T03:20:34;5.00;99.90
4695;DHT22;2361;49.540;8.390;2022-11-20T03:23:01;5.00;99.90
4695;DHT22;2361;49.540;8.390;2022-11-20T03:25:28;5.10;99.90
4695;DHT22;2361;49.540;8.390;2022-11-20T03:27:55;5.10;99.90
4695;DHT22;2361;49.540;8.390;2022-11-20T03:30:22;5.10;99.90
4695;DHT22;2361;49.540;8.390;2022-11-20T03:32:54;5.20;99.90
4695;DHT22;2361;49.540;8.390;2022-11-20T03:35:22;5.20;99.90
4695;DHT22;2361;49.540;8.390;2022-11-20T03:37:49;5.20;99.90
4695;DHT22;2361;49.540;8.390;2022-11-20T03:40:16;5.30;99.90
4695;DHT22;2361;49.540;8.390;2022-11-20T03:42:42;5.20;99.90
4695;DHT22;2361;49.540;8.390;2022-11-20T03:45:14;5.20;99.90
4695;DHT22;2361;49.540;8.390;2022-11-20T03:47:43;5.30;99.90
4695;DHT22;2361;49.540;8.390;2022-11-20T03:50:12;5.30;99.90
4695;DHT22;2361;49.540;8.390;2022-11-20T03:52:40;5.30;99.90
4695;DHT22;2361;49.540;8.390;2022-11-20T03:55:08;5.30;99.90
4695;DHT22;2361;49.540;8.390;2022-11-20T03:57:35;5.30;99.90
4695;DHT22;2361;49.540;8.390;2022-11-20T04:00:03;5.30;99.90
4695;DHT22;2361;49.540;8.390;2022-11-20T04:02:31;5.30;99.90
4695;DHT22;2361;49.540;8.390;2022-11-20T04:04:58;5.30;99.90
4695;DHT22;2361;49.540;8.390;2022-11-20T04:07:25;5.40;99.90
4695;DHT22;2361;49.540;8.390;2022-11-20T04:09:52;5.30;99.90
4695;DHT22;2361;49.540;8.390;2022-11-20T04:12:19;5.20;99.90
4695;DHT22;2361;49.540;8.390;2022-11-20T04:14:46;5.20;99.90
4695;DHT22;2361;49.540;8.390;2022-11-20T04:17:13;5.20;99.90
4695;DHT22;2361;49.540;8.390;2022-11-20T04:19:40;5.20;99.90
4695;DHT22;2361;49.540;8.390;2022-11-20T04:22:07;5.20;99.90
4695;DHT22;2361;49.540;8.390;2022-11-20T04:24:35;5.30;99.90
4695;DHT22;2361;49.540;8.390;2022-11-20T04:27:02;5.20;99.90
4695;DHT22;2361;49.540;8.390;2022-11-20T04:29:29;5.20;99.90
4695;DHT22;2361;49.540;8.390;2022-11-20T04:31:56;5.20;99.90
4695;DHT22;2361;49.540;8.390;2022-11-20T04:34:22;5.30;99.90
4695;DHT22;2361;49.540;8.390;2022-11-20T04:36:49;5.30;99.90
4695;DHT22;2361;49.540;8.390;2022-11-20T04:39:16;5.30;99.90
4695;DHT22;2361;49.540;8.390;2022-11-20T04:41:43;5.30;99.90
4695;DHT22;2361;49.540;8.390;2022-11-20T04:44:11;5.30;99.90
4695;DHT22;2361;49.540;8.390;2022-11-20T04:46:40;5.30;99.90
4695;DHT22;2361;49.540;8.390;2022-11-20T04:49:08;5.30;99.90
4695;DHT22;2361;49.540;8.390;2022-11-20T04:51:35;5.30;99.90
4695;DHT22;2361;49.540;8.390;2022-11-20T04:54:02;5.40;99.90
4695;DHT22;2361;49.540;8.390;2022-11-20T04:56:29;5.40;99.90
4695;DHT22;2361;49.540;8.390;2022-11-20T04:59:00;5.40;99.90
4695;DHT22;2361;49.540;8.390;2022-11-20T05:01:28;5.40;99.90
4695;DHT22;2361;49.540;8.390;2022-11-20T05:03:55;5.40;99.90
4695;DHT22;2361;49.540;8.390;2022-11-20T05:06:22;5.40;99.90
4695;DHT22;2361;49.540;8.390;2022-11-20T05:08:49;5.40;99.90
4695;DHT22;2361;49.540;8.390;2022-11-20T05:11:19;5.40;99.90
4695;DHT22;2361;49.540;8.390;2022-11-20T05:13:48;5.40;99.90
4695;DHT22;2361;49.540;8.390;2022-11-20T05:16:18;5.40;99.90
4695;DHT22;2361;49.540;8.390;2022-11-20T05:18:47;5.40;99.90
4695;DHT22;2361;49.540;8.390;2022-11-20T05:21:14;5.30;99.90
4695;DHT22;2361;49.540;8.390;2022-11-20T05:23:42;5.40;99.90
4695;DHT22;2361;49.540;8.390;2022-11-20T05:26:15;5.30;99.90
4695;DHT22;2361;49.540;8.390;2022-11-20T05:28:48;5.30;99.90
4695;DHT22;2361;49.540;8.390;2022-11-20T05:31:24;5.30;99.90
4695;DHT22;2361;49.540;8.390;2022-11-20T05:33:55;5.30;99.90
4695;DHT22;2361;49.540;8.390;2022-11-20T05:36:23;5.30;99.90
4695;DHT22;2361;49.540;8.390;2022-11-20T05:38:50;5.30;99.90
4695;DHT22;2361;49.540;8.390;2022-11-20T05:41:21;5.40;99.90
4695;DHT22;2361;49.540;8.390;2022-11-20T05:43:49;5.40;99.90
4695;DHT22;2361;49.540;8.390;2022-11-20T05:46:18;5.40;99.90
4695;DHT22;2361;49.540;8.390;2022-11-20T05:48:52;5.50;99.90
4695;DHT22;2361;49.540;8.390;2022-11-20T05:51:19;5.50;99.90
4695;DHT22;2361;49.540;8.390;2022-11-20T05:53:46;5.50;99.90
4695;DHT22;2361;49.540;8.390;2022-11-20T05:56:19;5.50;99.90
4695;DHT22;2361;49.540;8.390;2022-11-20T05:58:48;5.40;99.90
4695;DHT22;2361;49.540;8.390;2022-11-20T06:01:23;5.40;99.90
4695;DHT22;2361;49.540;8.390;2022-11-20T06:03:53;5.40;99.90
4695;DHT22;2361;49.540;8.390;2022-11-20T06:06:20;5.40;99.90
4695;DHT22;2361;49.540;8.390;2022-11-20T06:08:48;5.40;99.90
4695;DHT22;2361;49.540;8.390;2022-11-20T06:11:16;5.40;99.90
4695;DHT22;2361;49.540;8.390;2022-11-20T06:13:43;5.40;99.90
4695;DHT22;2361;49.540;8.390;2022-11-20T06:16:14;5.40;99.90
4695;DHT22;2361;49.540;8.390;2022-11-20T06:18:42;5.40;99.90
4695;DHT22;2361;49.540;8.390;2022-11-20T06:21:12;5.40;99.90
4695;DHT22;2361;49.540;8.390;2022-11-20T06:23:41;5.40;99.90
4695;DHT22;2361;49.540;8.390;2022-11-20T06:26:26;5.40;99.90
4695;DHT22;2361;49.540;8.390;2022-11-20T06:28:54;5.40;99.90
4695;DHT22;2361;49.540;8.390;2022-11-20T06:31:24;5.40;99.90
4695;DHT22;2361;49.540;8.390;2022-11-20T06:33:54;5.40;99.90
4695;DHT22;2361;49.540;8.390;2022-11-20T06:36:22;5.40;99.90
4695;DHT22;2361;49.540;8.390;2022-11-20T06:38:49;5.30;99.90
4695;DHT22;2361;49.540;8.390;2022-11-20T06:41:18;5.40;99.90
4695;DHT22;2361;49.540;8.390;2022-11-20T06:43:47;5.40;99.90
4695;DHT22;2361;49.540;8.390;2022-11-20T06:46:15;5.40;99.90
4695;DHT22;2361;49.540;8.390;2022-11-20T06:48:47;5.40;99.90
4695;DHT22;2361;49.540;8.390;2022-11-20T06:51:14;5.40;99.90
4695;DHT22;2361;49.540;8.390;2022-11-20T06:53:41;5.40;99.90
4695;DHT22;2361;49.540;8.390;2022-11-20T06:56:08;5.50;99.90
4695;DHT22;2361;49.540;8.390;2022-11-20T06:58:36;5.40;99.90
4695;DHT22;2361;49.540;8.390;2022-11-20T07:01:11;5.50;99.90
4695;DHT22;2361;49.540;8.390;2022-11-20T07:03:40;5.50;99.90
4695;DHT22;2361;49.540;8.390;2022-11-20T07:06:08;5.50;99.90
4695;DHT22;2361;49.540;8.390;2022-11-20T07:08:35;5.50;99.90
4695;DHT22;2361;49.540;8.390;2022-11-20T07:11:05;5.50;99.90
4695;DHT22;2361;49.540;8.390;2022-11-20T07:13:33;5.50;99.90
4695;DHT22;2361;49.540;8.390;2022-11-20T07:16:02;5.60;99.90
4695;DHT22;2361;49.540;8.390;2022-11-20T07:18:30;5.60;99.90
4695;DHT22;2361;49.540;8.390;2022-11-20T07:21:06;5.60;99.90
4695;DHT22;2361;49.540;8.390;2022-11-20T07:23:34;5.60;99.90
4695;DHT22;2361;49.540;8.390;2022-11-20T07:26:05;5.60;99.90
4695;DHT22;2361;49.540;8.390;2022-11-20T07:28:33;5.60;99.90
4695;DHT22;2361;49.540;8.390;2022-11-20T07:31:01;5.70;99.90
4695;DHT22;2361;49.540;8.390;2022-11-20T07:33:29;5.70;99.90
4695;DHT22;2361;49.540;8.390;2022-11-20T07:35:58;5.70;99.90
4695;DHT22;2361;49.540;8.390;2022-11-20T07:38:27;5.70;99.90
4695;DHT22;2361;49.540;8.390;2022-11-20T07:40:57;5.80;99.90
4695;DHT22;2361;49.540;8.390;2022-11-20T07:43:24;5.80;99.90
4695;DHT22;2361;49.540;8.390;2022-11-20T07:45:51;5.80;99.90
4695;DHT22;2361;49.540;8.390;2022-11-20T07:48:19;5.90;99.90
4695;DHT22;2361;49.540;8.390;2022-11-20T07:50:46;5.90;99.90
4695;DHT22;2361;49.540;8.390;2022-11-20T07:53:13;6.00;99.90
4695;DHT22;2361;49.540;8.390;2022-11-20T07:55:40;6.00;99.90
4695;DHT22;2361;49.540;8.390;2022-11-20T07:58:07;6.00;99.90
4695;DHT22;2361;49.540;8.390;2022-11-20T08:00:34;6.00;99.90
4695;DHT22;2361;49.540;8.390;2022-11-20T08:03:04;6.00;99.90
4695;DHT22;2361;49.540;8.390;2022-11-20T08:05:41;6.00;99.90
4695;DHT22;2361;49.540;8.390;2022-11-20T08:08:08;6.00;99.90
4695;DHT22;2361;49.540;8.390;2022-11-20T08:10:35;6.00;99.90
4695;DHT22;2361;49.540;8.390;2022-11-20T08:13:02;6.00;99.90
4695;DHT22;2361;49.540;8.390;2022-11-20T08:15:49;5.90;99.90
4695;DHT22;2361;49.540;8.390;2022-11-20T08:18:17;5.90;99.90
4695;DHT22;2361;49.540;8.390;2022-11-20T08:21:04;5.90;99.90
4695;DHT22;2361;49.540;8.390;2022-11-20T08:23:31;5.90;99.90
4695;DHT22;2361;49.540;8.390;2022-11-20T08:25:58;5.90;99.90
4695;DHT22;2361;49.540;8.390;2022-11-20T08:28:25;5.90;99.90
4695;DHT22;2361;49.540;8.390;2022-11-20T08:31:00;5.90;99.90
4695;DHT22;2361;49.540;8.390;2022-11-20T08:33:28;5.90;99.90
4695;DHT22;2361;49.540;8.390;2022-11-20T08:36:00;6.00;99.90
4695;DHT22;2361;49.540;8.390;2022-11-20T08:38:29;6.00;99.90
4695;DHT22;2361;49.540;8.390;2022-11-20T08:41:00;6.10;99.90
4695;DHT22;2361;49.540;8.390;2022-11-20T08:43:47;6.10;99.90
4695;DHT22;2361;49.540;8.390;2022-11-20T08:46:14;6.10;99.90
4695;DHT22;2361;49.540;8.390;2022-11-20T08:48:42;6.10;99.90
4695;DHT22;2361;49.540;8.390;2022-11-20T08:51:10;6.00;99.90
4695;DHT22;2361;49.540;8.390;2022-11-20T08:53:38;6.00;99.90
4695;DHT22;2361;49.540;8.390;2022-11-20T08:56:06;6.10;99.90
4695;DHT22;2361;49.540;8.390;2022-11-20T08:58:33;6.10;99.90
4695;DHT22;2361;49.540;8.390;2022-11-20T09:01:21;6.00;99.90
4695;DHT22;2361;49.540;8.390;2022-11-20T09:03:50;6.00;99.90
4695;DHT22;2361;49.540;8.390;2022-11-20T09:06:17;6.10;99.90
4695;DHT22;2361;49.540;8.390;2022-11-20T09:08:44;6.10;99.90
4695;DHT22;2361;49.540;8.390;2022-11-20T09:11:11;6.10;99.90
4695;DHT22;2361;49.540;8.390;2022-11-20T09:13:38;6.10;99.90
4695;DHT22;2361;49.540;8.390;2022-11-20T09:16:07;6.20;99.90
4695;DHT22;2361;49.540;8.390;2022-11-20T09:18:36;6.10;99.90
4695;DHT22;2361;49.540;8.390;2022-11-20T09:21:07;6.10;99.90
4695;DHT22;2361;49.540;8.390;2022-11-20T09:23:38;6.20;99.90
4695;DHT22;2361;49.540;8.390;2022-11-20T09:26:13;6.20;99.90
4695;DHT22;2361;49.540;8.390;2022-11-20T09:28:40;6.20;99.90
4695;DHT22;2361;49.540;8.390;2022-11-20T09:31:09;6.20;99.90
4695;DHT22;2361;49.540;8.390;2022-11-20T09:33:43;6.30;99.90
4695;DHT22;2361;49.540;8.390;2022-11-20T09:36:10;6.30;99.90
4695;DHT22;2361;49.540;8.390;2022-11-20T09:38:37;6.30;99.90
4695;DHT22;2361;49.540;8.390;2022-11-20T09:41:06;6.20;99.90
4695;DHT22;2361;49.540;8.390;2022-11-20T09:47:01;6.30;99.90
4695;DHT22;2361;49.540;8.390;2022-11-20T09:50:07;6.30;99.90
4695;DHT22;2361;49.540;8.390;2022-11-20T09:55:25;6.40;99.90
4695;DHT22;2361;49.540;8.390;2022-11-20T09:57:55;6.40;99.90
4695;DHT22;2361;49.540;8.390;2022-11-20T10:00:23;6.40;99.90
4695;DHT22;2361;49.540;8.390;2022-11-20T10:03:09;6.50;99.90
4695;DHT22;2361;49.540;8.390;2022-11-20T10:05:46;6.50;99.90
4695;DHT22;2361;49.540;8.390;2022-11-20T10:08:41;6.50;99.90
4695;DHT22;2361;49.540;8.390;2022-11-20T10:11:46;6.50;99.90
4695;DHT22;2361;49.540;8.390;2022-11-20T10:14:26;6.50;99.90
4695;DHT22;2361;49.540;8.390;2022-11-20T10:17:16;6.50;99.90
4695;DHT22;2361;49.540;8.390;2022-11-20T10:25:41;6.50;99.90
4695;DHT22;2361;49.540;8.390;2022-11-20T10:28:27;6.50;99.90
4695;DHT22;2361;49.540;8.390;2022-11-20T10:31:10;6.50;99.90
4695;DHT22;2361;49.540;8.390;2022-11-20T10:33:45;6.60;99.90
4695;DHT22;2361;49.540;8.390;2022-11-20T10:36:45;6.70;99.90
4695;DHT22;2361;49.540;8.390;2022-11-20T10:39:28;6.80;99.90
4695;DHT22;2361;49.540;8.390;2022-11-20T10:42:00;6.90;99.90
4695;DHT22;2361;49.540;8.390;2022-11-20T10:44:29;6.90;99.90
4695;DHT22;2361;49.540;8.390;2022-11-20T10:47:20;6.90;99.90
4695;DHT22;2361;49.540;8.390;2022-11-20T10:49:51;7.00;99.90
4695;DHT22;2361;49.540;8.390;2022-11-20T10:52:39;7.20;99.90
4695;DHT22;2361;49.540;8.390;2022-11-20T10:58:14;7.30;99.90
4695;DHT22;2361;49.540;8.390;2022-11-20T11:00:44;7.40;99.90
4695;DHT22;2361;49.540;8.390;2022-11-20T11:03:26;7.40;99.90
4695;DHT22;2361;49.540;8.390;2022-11-20T11:08:34;7.60;99.90
4695;DHT22;2361;49.540;8.390;2022-11-20T11:11:29;7.70;99.90
4695;DHT22;2361;49.540;8.390;2022-11-20T11:14:12;7.70;99.90
4695;DHT22;2361;49.540;8.390;2022-11-20T11:19:18;7.80;99.90
4695;DHT22;2361;49.540;8.390;2022-11-20T11:21:53;7.90;99.90
4695;DHT22;2361;49.540;8.390;2022-11-20T11:24:28;8.00;99.90
4695;DHT22;2361;49.540;8.390;2022-11-20T11:27:13;8.00;99.90
4695;DHT22;2361;49.540;8.390;2022-11-20T11:29:45;8.00;99.90
4695;DHT22;2361;49.540;8.390;2022-11-20T11:32:15;7.90;99.90
4695;DHT22;2361;49.540;8.390;2022-11-20T11:34:42;7.90;99.90
4695;DHT22;2361;49.540;8.390;2022-11-20T11:37:17;8.00;99.90
4695;DHT22;2361;49.540;8.390;2022-11-20T11:39:48;8.00;99.90
4695;DHT22;2361;49.540;8.390;2022-11-20T11:42:30;8.10;99.90
4695;DHT22;2361;49.540;8.390;2022-11-20T11:44:59;8.00;99.90
4695;DHT22;2361;49.540;8.390;2022-11-20T11:47:36;7.90;99.90
4695;DHT22;2361;49.540;8.390;2022-11-20T11:52:50;7.90;99.90
4695;DHT22;2361;49.540;8.390;2022-11-20T11:55:45;7.90;99.90
4695;DHT22;2361;49.540;8.390;2022-11-20T12:04:44;8.00;99.90
4695;DHT22;2361;49.540;8.390;2022-11-20T12:07:27;8.00;99.90
4695;DHT22;2361;49.540;8.390;2022-11-20T12:10:22;8.10;99.90
4695;DHT22;2361;49.540;8.390;2022-11-20T12:13:02;8.20;99.90
4695;DHT22;2361;49.540;8.390;2022-11-20T12:15:34;8.30;99.90
4695;DHT22;2361;49.540;8.390;2022-11-20T12:18:01;8.40;99.90
4695;DHT22;2361;49.540;8.390;2022-11-20T12:20:38;8.40;99.90
4695;DHT22;2361;49.540;8.390;2022-11-20T12:23:18;8.40;99.90
4695;DHT22;2361;49.540;8.390;2022-11-20T12:26:18;8.50;99.90
4695;DHT22;2361;49.540;8.390;2022-11-20T12:38:08;8.50;99.90
4695;DHT22;2361;49.540;8.390;2022-11-20T12:53:51;8.40;99.90
4695;DHT22;2361;49.540;8.390;2022-11-20T13:08:25;8.40;99.90
4695;DHT22;2361;49.540;8.390;2022-11-20T13:11:16;8.50;99.90
4695;DHT22;2361;49.540;8.390;2022-11-20T13:17:01;8.40;99.90
4695;DHT22;2361;49.540;8.390;2022-11-20T13:19:32;8.50;99.90
4695;DHT22;2361;49.540;8.390;2022-11-20T13:22:00;8.60;99.90
4695;DHT22;2361;49.540;8.390;2022-11-20T13:24:29;8.70;99.90
4695;DHT22;2361;49.540;8.390;2022-11-20T13:29:44;8.80;99.90
4695;DHT22;2361;49.540;8.390;2022-11-20T13:32:18;8.90;99.90
4695;DHT22;2361;49.540;8.390;2022-11-20T13:34:58;9.10;99.90
4695;DHT22;2361;49.540;8.390;2022-11-20T13:46:06;9.40;99.90
4695;DHT22;2361;49.540;8.390;2022-11-20T13:48:39;9.50;99.90
4695;DHT22;2361;49.540;8.390;2022-11-20T13:57:38;9.60;99.90
4695;DHT22;2361;49.540;8.390;2022-11-20T14:00:23;9.60;99.90
4695;DHT22;2361;49.540;8.390;2022-11-20T14:03:17;9.70;99.90
4695;DHT22;2361;49.540;8.390;2022-11-20T14:06:12;9.70;99.90
4695;DHT22;2361;49.540;8.390;2022-11-20T14:09:01;9.70;99.90
4695;DHT22;2361;49.540;8.390;2022-11-20T14:11:30;9.70;99.90
4695;DHT22;2361;49.540;8.390;2022-11-20T14:14:01;9.70;99.90
4695;DHT22;2361;49.540;8.390;2022-11-20T14:16:37;9.70;99.90
4695;DHT22;2361;49.540;8.390;2022-11-20T14:21:48;9.60;99.90
4695;DHT22;2361;49.540;8.390;2022-11-20T14:24:21;9.60;99.90
4695;DHT22;2361;49.540;8.390;2022-11-20T14:26:50;9.50;99.90
4695;DHT22;2361;49.540;8.390;2022-11-20T14:29:27;9.50;99.90
4695;DHT22;2361;49.540;8.390;2022-11-20T14:31:56;9.40;99.90
4695;DHT22;2361;49.540;8.390;2022-11-20T14:34:28;9.40;99.90
4695;DHT22;2361;49.540;8.390;2022-11-20T14:37:03;9.30;99.90
4695;DHT22;2361;49.540;8.390;2022-11-20T14:39:51;9.30;99.90
4695;DHT22;2361;49.540;8.390;2022-11-20T14:42:22;9.20;99.90
4695;DHT22;2361;49.540;8.390;2022-11-20T14:44:56;9.20;99.90
4695;DHT22;2361;49.540;8.390;2022-11-20T14:47:27;9.20;99.90
4695;DHT22;2361;49.540;8.390;2022-11-20T14:50:00;9.30;99.90
4695;DHT22;2361;49.540;8.390;2022-11-20T14:52:32;9.20;99.90
4695;DHT22;2361;49.540;8.390;2022-11-20T14:55:03;9.20;99.90
4695;DHT22;2361;49.540;8.390;2022-11-20T14:57:35;9.10;99.90
4695;DHT22;2361;49.540;8.390;2022-11-20T15:00:19;9.10;99.90
4695;DHT22;2361;49.540;8.390;2022-11-20T15:02:56;9.10;99.90
4695;DHT22;2361;49.540;8.390;2022-11-20T15:05:48;9.00;99.90
4695;DHT22;2361;49.540;8.390;2022-11-20T15:08:18;8.90;99.90
4695;DHT22;2361;49.540;8.390;2022-11-20T15:10:51;8.90;99.90
4695;DHT22;2361;49.540;8.390;2022-11-20T15:13:28;8.90;99.90
4695;DHT22;2361;49.540;8.390;2022-11-20T15:16:00;8.90;99.90
4695;DHT22;2361;49.540;8.390;2022-11-20T15:18:38;8.90;99.90
4695;DHT22;2361;49.540;8.390;2022-11-20T15:21:14;8.80;99.90
4695;DHT22;2361;49.540;8.390;2022-11-20T15:23:47;8.70;99.90
4695;DHT22;2361;49.540;8.390;2022-11-20T15:26:26;8.70;99.90
4695;DHT22;2361;49.540;8.390;2022-11-20T15:28:56;8.70;99.90
4695;DHT22;2361;49.540;8.390;2022-11-20T15:31:23;8.60;99.90
4695;DHT22;2361;49.540;8.390;2022-11-20T15:33:51;8.60;99.90
4695;DHT22;2361;49.540;8.390;2022-11-20T15:36:18;8.60;99.90
4695;DHT22;2361;49.540;8.390;2022-11-20T15:38:45;8.60;99.90
4695;DHT22;2361;49.540;8.390;2022-11-20T15:41:12;8.50;99.90
4695;DHT22;2361;49.540;8.390;2022-11-20T15:43:39;8.50;99.90
4695;DHT22;2361;49.540;8.390;2022-11-20T15:46:10;8.50;99.90
4695;DHT22;2361;49.540;8.390;2022-11-20T15:48:42;8.50;99.90
4695;DHT22;2361;49.540;8.390;2022-11-20T15:53:51;8.40;99.90
4695;DHT22;2361;49.540;8.390;2022-11-20T15:56:18;8.40;99.90
4695;DHT22;2361;49.540;8.390;2022-11-20T15:58:45;8.50;99.90
4695;DHT22;2361;49.540;8.390;2022-11-20T16:01:14;8.50;99.90
4695;DHT22;2361;49.540;8.390;2022-11-20T16:03:43;8.40;99.90
4695;DHT22;2361;49.540;8.390;2022-11-20T16:06:10;8.40;99.90
4695;DHT22;2361;49.540;8.390;2022-11-20T16:08:37;8.40;99.90
4695;DHT22;2361;49.540;8.390;2022-11-20T16:11:04;8.40;99.90
4695;DHT22;2361;49.540;8.390;2022-11-20T16:13:32;8.50;99.90
4695;DHT22;2361;49.540;8.390;2022-11-20T16:16:31;8.50;99.90
4695;DHT22;2361;49.540;8.390;2022-11-20T16:18:59;8.50;99.90
4695;DHT22;2361;49.540;8.390;2022-11-20T16:21:27;8.40;99.90
4695;DHT22;2361;49.540;8.390;2022-11-20T16:24:07;8.40;99.90
4695;DHT22;2361;49.540;8.390;2022-11-20T16:26:40;8.40;99.90
4695;DHT22;2361;49.540;8.390;2022-11-20T16:29:07;8.40;99.90
4695;DHT22;2361;49.540;8.390;2022-11-20T16:31:35;8.40;99.90
4695;DHT22;2361;49.540;8.390;2022-11-20T16:34:05;8.30;99.90
4695;DHT22;2361;49.540;8.390;2022-11-20T16:36:40;8.30;99.90
4695;DHT22;2361;49.540;8.390;2022-11-20T16:39:08;8.30;99.90
4695;DHT22;2361;49.540;8.390;2022-11-20T16:41:35;8.30;99.90
4695;DHT22;2361;49.540;8.390;2022-11-20T16:44:08;8.40;99.90
4695;DHT22;2361;49.540;8.390;2022-11-20T16:46:37;8.40;99.90
4695;DHT22;2361;49.540;8.390;2022-11-20T16:49:11;8.40;99.90
4695;DHT22;2361;49.540;8.390;2022-11-20T16:51:39;8.40;99.90
4695;DHT22;2361;49.540;8.390;2022-11-20T16:54:08;8.40;99.90
4695;DHT22;2361;49.540;8.390;2022-11-20T16:56:36;8.40;99.90
4695;DHT22;2361;49.540;8.390;2022-11-20T16:59:03;8.30;99.90
4695;DHT22;2361;49.540;8.390;2022-11-20T17:01:31;8.40;99.90
4695;DHT22;2361;49.540;8.390;2022-11-20T17:04:03;8.40;99.90
4695;DHT22;2361;49.540;8.390;2022-11-20T17:06:35;8.40;99.90
4695;DHT22;2361;49.540;8.390;2022-11-20T17:09:04;8.40;99.90
4695;DHT22;2361;49.540;8.390;2022-11-20T17:11:32;8.50;99.90
4695;DHT22;2361;49.540;8.390;2022-11-20T17:14:00;8.50;99.90
4695;DHT22;2361;49.540;8.390;2022-11-20T17:16:33;8.50;99.90
4695;DHT22;2361;49.540;8.390;2022-11-20T17:19:01;8.40;99.90
4695;DHT22;2361;49.540;8.390;2022-11-20T17:21:31;8.40;99.90
4695;DHT22;2361;49.540;8.390;2022-11-20T17:24:00;8.40;99.90
4695;DHT22;2361;49.540;8.390;2022-11-20T17:26:32;8.40;99.90
4695;DHT22;2361;49.540;8.390;2022-11-20T17:29:08;8.40;99.90
4695;DHT22;2361;49.540;8.390;2022-11-20T17:31:37;8.40;99.90
4695;DHT22;2361;49.540;8.390;2022-11-20T17:34:06;8.40;99.90
4695;DHT22;2361;49.540;8.390;2022-11-20T17:36:34;8.30;99.90
4695;DHT22;2361;49.540;8.390;2022-11-20T17:39:04;8.30;99.90
4695;DHT22;2361;49.540;8.390;2022-11-20T17:41:31;8.30;99.90
4695;DHT22;2361;49.540;8.390;2022-11-20T17:44:00;8.30;99.90
4695;DHT22;2361;49.540;8.390;2022-11-20T17:46:29;8.30;99.90
4695;DHT22;2361;49.540;8.390;2022-11-20T17:49:01;8.20;99.90
4695;DHT22;2361;49.540;8.390;2022-11-20T17:51:30;8.20;99.90
4695;DHT22;2361;49.540;8.390;2022-11-20T17:54:03;8.20;99.90
4695;DHT22;2361;49.540;8.390;2022-11-20T17:56:31;8.20;99.90
4695;DHT22;2361;49.540;8.390;2022-11-20T17:59:18;8.30;99.90
4695;DHT22;2361;49.540;8.390;2022-11-20T18:01:45;8.30;99.90
4695;DHT22;2361;49.540;8.390;2022-11-20T18:04:12;8.30;99.90
4695;DHT22;2361;49.540;8.390;2022-11-20T18:06:40;8.30;99.90
4695;DHT22;2361;49.540;8.390;2022-11-20T18:09:08;8.30;99.90
4695;DHT22;2361;49.540;8.390;2022-11-20T18:11:41;8.30;99.90
4695;DHT22;2361;49.540;8.390;2022-11-20T18:14:14;8.40;99.90
4695;DHT22;2361;49.540;8.390;2022-11-20T18:17:05;8.40;99.90